sensor_id;sensor_type;location;lat;lon;timestamp;pressure;altitude;pressure_sealevel;temperature;humidity
11345;BME280;5727;42.600;23.028;2022-08-19T00:00:09;93499.56;;;21.14;91.75
11345;BME280;5727;42.600;23.028;2022-08-19T00:02:36;93498.84;;;21.10;92.19
11345;BME280;5727;42.600;23.028;2022-08-19T00:05:04;93516.00;;;21.06;91.46
11345;BME280;5727;42.600;23.028;2022-08-19T00:07:31;93510.38;;;20.96;91.61
11345;BME280;5727;42.600;23.028;2022-08-19T00:09:58;93515.38;;;20.91;92.13
11345;BME280;5727;42.600;23.028;2022-08-19T00:12:25;93513.88;;;20.86;92.17
11345;BME280;5727;42.600;23.028;2022-08-19T00:14:53;93522.31;;;20.81;92.46
11345;BME280;5727;42.600;23.028;2022-08-19T00:17:20;93529.94;;;20.79;92.23
11345;BME280;5727;42.600;23.028;2022-08-19T00:19:47;93535.25;;;20.79;92.91
11345;BME280;5727;42.600;23.028;2022-08-19T00:22:14;93532.22;;;20.77;93.04
11345;BME280;5727;42.600;23.028;2022-08-19T00:24:41;93537.97;;;20.72;93.45
11345;BME280;5727;42.600;23.028;2022-08-19T00:27:09;93527.69;;;20.71;93.97
11345;BME280;5727;42.600;23.028;2022-08-19T00:29:35;93523.91;;;20.72;93.60
11345;BME280;5727;42.600;23.028;2022-08-19T00:32:04;93523.91;;;20.72;93.75
11345;BME280;5727;42.600;23.028;2022-08-19T00:34:31;93526.97;;;20.70;93.67
11345;BME280;5727;42.600;23.028;2022-08-19T00:36:58;93527.72;;;20.67;93.85
11345;BME280;5727;42.600;23.028;2022-08-19T00:39:25;93516.34;;;20.67;94.17
11345;BME280;5727;42.600;23.028;2022-08-19T00:41:52;93513.31;;;20.65;95.09
11345;BME280;5727;42.600;23.028;2022-08-19T00:44:22;93508.03;;;20.58;95.32
11345;BME280;5727;42.600;23.028;2022-08-19T00:46:51;93503.88;;;20.57;95.70
11345;BME280;5727;42.600;23.028;2022-08-19T00:49:22;93501.22;;;20.57;95.77
11345;BME280;5727;42.600;23.028;2022-08-19T00:51:54;93510.41;;;20.49;96.20
11345;BME280;5727;42.600;23.028;2022-08-19T00:54:21;93503.19;;;20.49;96.24
11345;BME280;5727;42.600;23.028;2022-08-19T00:56:50;93503.22;;;20.46;96.01
11345;BME280;5727;42.600;23.028;2022-08-19T00:59:18;93512.72;;;20.43;96.21
11345;BME280;5727;42.600;23.028;2022-08-19T01:01:46;93509.69;;;20.41;96.09
11345;BME280;5727;42.600;23.028;2022-08-19T01:04:13;93510.50;;;20.35;95.82
11345;BME280;5727;42.600;23.028;2022-08-19T01:06:41;93509.78;;;20.27;96.40
11345;BME280;5727;42.600;23.028;2022-08-19T01:09:08;93505.25;;;20.17;96.45
11345;BME280;5727;42.600;23.028;2022-08-19T01:11:38;93505.25;;;20.24;97.01
11345;BME280;5727;42.600;23.028;2022-08-19T01:14:07;93512.06;;;20.25;96.83
11345;BME280;5727;42.600;23.028;2022-08-19T01:16:34;93501.84;;;20.20;97.12
11345;BME280;5727;42.600;23.028;2022-08-19T01:19:04;93512.91;;;20.19;97.67
11345;BME280;5727;42.600;23.028;2022-08-19T01:21:43;93503.38;;;20.14;97.08
11345;BME280;5727;42.600;23.028;2022-08-19T01:24:14;93502.63;;;20.14;97.27
11345;BME280;5727;42.600;23.028;2022-08-19T01:26:43;93501.50;;;20.07;98.67
11345;BME280;5727;42.600;23.028;2022-08-19T01:29:10;93497.72;;;20.08;98.78
11345;BME280;5727;42.600;23.028;2022-08-19T01:31:37;93504.53;;;20.09;98.50
11345;BME280;5727;42.600;23.028;2022-08-19T01:34:05;93502.31;;;20.04;98.76
11345;BME280;5727;42.600;23.028;2022-08-19T01:36:35;93506.88;;;20.00;98.89
11345;BME280;5727;42.600;23.028;2022-08-19T01:39:06;93500.81;;;20.00;98.98
11345;BME280;5727;42.600;23.028;2022-08-19T01:41:36;93496.63;;;20.02;99.25
11345;BME280;5727;42.600;23.028;2022-08-19T01:44:04;93508.38;;;20.05;99.29
11345;BME280;5727;42.600;23.028;2022-08-19T01:46:31;93512.19;;;20.04;99.45
11345;BME280;5727;42.600;23.028;2022-08-19T01:48:58;93516.75;;;20.00;99.48
11345;BME280;5727;42.600;23.028;2022-08-19T01:51:26;93513.78;;;19.91;99.47
11345;BME280;5727;42.600;23.028;2022-08-19T01:53:53;93510.00;;;19.92;100.00
11345;BME280;5727;42.600;23.028;2022-08-19T01:56:20;93514.16;;;19.89;100.00
11345;BME280;5727;42.600;23.028;2022-08-19T01:58:50;93508.47;;;19.87;100.00
11345;BME280;5727;42.600;23.028;2022-08-19T02:01:19;93509.25;;;19.84;100.00
11345;BME280;5727;42.600;23.028;2022-08-19T02:03:46;93510.03;;;19.81;100.00
11345;BME280;5727;42.600;23.028;2022-08-19T02:06:13;93502.47;;;19.76;100.00
11345;BME280;5727;42.600;23.028;2022-08-19T02:08:42;93510.81;;;19.75;100.00
11345;BME280;5727;42.600;23.028;2022-08-19T02:11:19;93516.16;;;19.71;100.00
11345;BME280;5727;42.600;23.028;2022-08-19T02:13:45;93508.53;;;19.73;100.00
11345;BME280;5727;42.600;23.028;2022-08-19T02:16:14;93500.56;;;19.73;100.00
11345;BME280;5727;42.600;23.028;2022-08-19T02:18:40;93509.69;;;19.76;100.00
11345;BME280;5727;42.600;23.028;2022-08-19T02:21:07;93502.47;;;19.69;100.00
11345;BME280;5727;42.600;23.028;2022-08-19T02:23:34;93499.81;;;19.69;100.00
11345;BME280;5727;42.600;23.028;2022-08-19T02:26:00;93507.81;;;19.66;100.00
11345;BME280;5727;42.600;23.028;2022-08-19T02:28:27;93506.34;;;19.61;100.00
11345;BME280;5727;42.600;23.028;2022-08-19T02:30:54;93510.88;;;19.61;100.00
11345;BME280;5727;42.600;23.028;2022-08-19T02:33:22;93517.72;;;19.58;100.00
11345;BME280;5727;42.600;23.028;2022-08-19T02:35:49;93514.69;;;19.56;100.00
11345;BME280;5727;42.600;23.028;2022-08-19T02:38:15;93512.06;;;19.53;100.00
11345;BME280;5727;42.600;23.028;2022-08-19T02:40:56;93513.19;;;19.48;100.00
11345;BME280;5727;42.600;23.028;2022-08-19T02:43:24;93506.00;;;19.45;100.00
11345;BME280;5727;42.600;23.028;2022-08-19T02:45:51;93496.91;;;19.43;100.00
11345;BME280;5727;42.600;23.028;2022-08-19T02:48:20;93498.81;;;19.39;100.00
11345;BME280;5727;42.600;23.028;2022-08-19T02:50:50;93491.25;;;19.34;100.00
11345;BME280;5727;42.600;23.028;2022-08-19T02:53:20;93485.91;;;19.37;100.00
11345;BME280;5727;42.600;23.028;2022-08-19T02:55:48;93489.34;;;19.34;100.00
11345;BME280;5727;42.600;23.028;2022-08-19T02:58:17;93494.66;;;19.34;100.00
11345;BME280;5727;42.600;23.028;2022-08-19T03:00:45;93494.28;;;19.25;100.00
11345;BME280;5727;42.600;23.028;2022-08-19T03:03:13;93495.81;;;19.26;100.00
11345;BME280;5727;42.600;23.028;2022-08-19T03:05:40;93497.31;;;19.24;100.00
11345;BME280;5727;42.600;23.028;2022-08-19T03:08:09;93504.91;;;19.22;100.00
11345;BME280;5727;42.600;23.028;2022-08-19T03:10:42;93509.09;;;19.19;100.00
11345;BME280;5727;42.600;23.028;2022-08-19T03:13:11;93514.78;;;19.17;100.00
11345;BME280;5727;42.600;23.028;2022-08-19T03:15:40;93513.28;;;19.16;100.00
11345;BME280;5727;42.600;23.028;2022-08-19T03:18:07;93515.94;;;19.13;100.00
11345;BME280;5727;42.600;23.028;2022-08-19T03:20:34;93517.09;;;19.08;100.00
11345;BME280;5727;42.600;23.028;2022-08-19T03:23:06;93522.03;;;18.89;100.00
11345;BME280;5727;42.600;23.028;2022-08-19T03:25:38;93516.75;;;18.82;100.00
11345;BME280;5727;42.600;23.028;2022-08-19T03:28:06;93513.34;;;18.74;100.00
11345;BME280;5727;42.600;23.028;2022-08-19T03:30:33;93516.38;;;18.48;100.00
11345;BME280;5727;42.600;23.028;2022-08-19T03:32:59;93520.13;;;18.33;100.00
11345;BME280;5727;42.600;23.028;2022-08-19T03:35:27;93521.63;;;18.20;100.00
11345;BME280;5727;42.600;23.028;2022-08-19T03:37:53;93526.94;;;18.27;100.00
11345;BME280;5727;42.600;23.028;2022-08-19T03:40:21;93527.69;;;18.35;100.00
11345;BME280;5727;42.600;23.028;2022-08-19T03:42:49;93531.16;;;18.42;100.00
11345;BME280;5727;42.600;23.028;2022-08-19T03:45:16;93533.81;;;18.46;100.00
11345;BME280;5727;42.600;23.028;2022-08-19T03:47:43;93537.63;;;18.52;100.00
11345;BME280;5727;42.600;23.028;2022-08-19T03:50:10;93540.66;;;18.54;100.00
11345;BME280;5727;42.600;23.028;2022-08-19T03:52:37;93538.38;;;18.59;100.00
11345;BME280;5727;42.600;23.028;2022-08-19T03:55:06;93535.34;;;18.61;100.00
11345;BME280;5727;42.600;23.028;2022-08-19T03:57:33;93546.72;;;18.65;100.00
11345;BME280;5727;42.600;23.028;2022-08-19T04:00:03;93541.03;;;18.66;100.00
11345;BME280;5727;42.600;23.028;2022-08-19T04:02:32;93546.31;;;18.70;100.00
11345;BME280;5727;42.600;23.028;2022-08-19T04:04:58;93547.47;;;18.72;100.00
11345;BME280;5727;42.600;23.028;2022-08-19T04:07:25;93538.38;;;18.77;100.00
11345;BME280;5727;42.600;23.028;2022-08-19T04:09:52;93542.91;;;18.80;100.00
11345;BME280;5727;42.600;23.028;2022-08-19T04:12:19;93550.88;;;18.76;100.00
11345;BME280;5727;42.600;23.028;2022-08-19T04:14:46;93553.53;;;18.76;100.00
11345;BME280;5727;42.600;23.028;2022-08-19T04:17:14;93564.13;;;18.66;100.00
11345;BME280;5727;42.600;23.028;2022-08-19T04:19:41;93548.22;;;18.76;100.00
11345;BME280;5727;42.600;23.028;2022-08-19T04:22:09;93560.38;;;18.84;100.00
11345;BME280;5727;42.600;23.028;2022-08-19T04:24:36;93564.13;;;18.90;100.00
11345;BME280;5727;42.600;23.028;2022-08-19T04:27:04;93563.78;;;18.92;100.00
11345;BME280;5727;42.600;23.028;2022-08-19T04:29:31;93563.75;;;18.95;100.00
11345;BME280;5727;42.600;23.028;2022-08-19T04:31:59;93565.66;;;18.98;100.00
11345;BME280;5727;42.600;23.028;2022-08-19T04:34:28;93562.25;;;18.98;100.00
11345;BME280;5727;42.600;23.028;2022-08-19T04:36:57;93561.09;;;19.02;100.00
11345;BME280;5727;42.600;23.028;2022-08-19T04:39:26;93558.41;;;19.09;100.00
11345;BME280;5727;42.600;23.028;2022-08-19T04:42:15;93547.81;;;19.16;100.00
11345;BME280;5727;42.600;23.028;2022-08-19T04:45:00;93552.72;;;19.22;100.00
11345;BME280;5727;42.600;23.028;2022-08-19T04:47:27;93560.66;;;19.25;100.00
11345;BME280;5727;42.600;23.028;2022-08-19T04:49:59;93550.84;;;19.36;100.00
11345;BME280;5727;42.600;23.028;2022-08-19T04:52:25;93550.44;;;19.38;100.00
11345;BME280;5727;42.600;23.028;2022-08-19T04:54:52;93554.22;;;19.47;100.00
11345;BME280;5727;42.600;23.028;2022-08-19T04:57:20;93556.47;;;19.59;100.00
11345;BME280;5727;42.600;23.028;2022-08-19T04:59:48;93550.34;;;19.66;100.00
11345;BME280;5727;42.600;23.028;2022-08-19T05:02:15;93552.97;;;19.69;100.00
11345;BME280;5727;42.600;23.028;2022-08-19T05:04:41;93559.41;;;19.75;100.00
11345;BME280;5727;42.600;23.028;2022-08-19T05:07:09;93559.75;;;19.84;100.00
11345;BME280;5727;42.600;23.028;2022-08-19T05:09:37;93561.66;;;19.87;100.00
11345;BME280;5727;42.600;23.028;2022-08-19T05:12:04;93564.34;;;19.80;100.00
11345;BME280;5727;42.600;23.028;2022-08-19T05:14:31;93565.47;;;19.83;100.00
11345;BME280;5727;42.600;23.028;2022-08-19T05:16:58;93558.63;;;19.85;100.00
11345;BME280;5727;42.600;23.028;2022-08-19T05:19:24;93564.28;;;19.94;100.00
11345;BME280;5727;42.600;23.028;2022-08-19T05:22:18;93566.91;;;19.98;100.00
11345;BME280;5727;42.600;23.028;2022-08-19T05:25:05;93571.88;;;19.99;100.00
11345;BME280;5727;42.600;23.028;2022-08-19T05:27:32;93575.97;;;20.07;100.00
11345;BME280;5727;42.600;23.028;2022-08-19T05:29:59;93570.25;;;20.20;100.00
11345;BME280;5727;42.600;23.028;2022-08-19T05:32:27;93566.03;;;20.26;99.75
11345;BME280;5727;42.600;23.028;2022-08-19T05:34:53;93571.66;;;20.38;99.00
11345;BME280;5727;42.600;23.028;2022-08-19T05:37:22;93564.78;;;20.48;98.11
11345;BME280;5727;42.600;23.028;2022-08-19T05:39:52;93564.69;;;20.58;98.03
11345;BME280;5727;42.600;23.028;2022-08-19T05:42:20;93571.88;;;20.65;97.27
11345;BME280;5727;42.600;23.028;2022-08-19T05:44:47;93564.97;;;20.71;96.24
11345;BME280;5727;42.600;23.028;2022-08-19T05:47:15;93565.28;;;20.83;95.40
11345;BME280;5727;42.600;23.028;2022-08-19T05:49:44;93570.91;;;20.92;94.89
11345;BME280;5727;42.600;23.028;2022-08-19T05:52:13;93560.59;;;21.02;94.91
11345;BME280;5727;42.600;23.028;2022-08-19T05:54:42;93574.63;;;21.09;94.73
11345;BME280;5727;42.600;23.028;2022-08-19T05:57:13;93568.41;;;21.19;94.15
11345;BME280;5727;42.600;23.028;2022-08-19T05:59:40;93566.78;;;21.29;93.14
11345;BME280;5727;42.600;23.028;2022-08-19T06:02:07;93561.38;;;21.39;92.99
11345;BME280;5727;42.600;23.028;2022-08-19T06:04:34;93564.31;;;21.48;91.16
11345;BME280;5727;42.600;23.028;2022-08-19T06:07:01;93565.84;;;21.49;91.19
11345;BME280;5727;42.600;23.028;2022-08-19T06:09:28;93563.09;;;21.56;91.73
11345;BME280;5727;42.600;23.028;2022-08-19T06:11:58;93567.91;;;21.68;90.64
11345;BME280;5727;42.600;23.028;2022-08-19T06:14:26;93567.78;;;21.79;90.44
11345;BME280;5727;42.600;23.028;2022-08-19T06:16:53;93568.84;;;21.89;89.74
11345;BME280;5727;42.600;23.028;2022-08-19T06:19:21;93561.09;;;22.01;89.47
11345;BME280;5727;42.600;23.028;2022-08-19T06:21:50;93553.34;;;22.10;89.04
11345;BME280;5727;42.600;23.028;2022-08-19T06:24:20;93563.84;;;22.24;88.62
11345;BME280;5727;42.600;23.028;2022-08-19T06:26:48;93564.50;;;22.32;87.26
11345;BME280;5727;42.600;23.028;2022-08-19T06:29:18;93556.44;;;22.35;85.99
11345;BME280;5727;42.600;23.028;2022-08-19T06:31:48;93562.88;;;22.38;85.45
11345;BME280;5727;42.600;23.028;2022-08-19T06:34:16;93555.88;;;22.47;84.13
11345;BME280;5727;42.600;23.028;2022-08-19T06:36:46;93565.28;;;22.59;83.62
11345;BME280;5727;42.600;23.028;2022-08-19T06:39:14;93557.56;;;22.64;82.68
11345;BME280;5727;42.600;23.028;2022-08-19T06:41:44;93561.31;;;22.67;81.49
11345;BME280;5727;42.600;23.028;2022-08-19T06:44:12;93564.97;;;22.80;79.26
11345;BME280;5727;42.600;23.028;2022-08-19T06:46:40;93566.34;;;22.88;77.68
11345;BME280;5727;42.600;23.028;2022-08-19T06:49:08;93557.06;;;22.96;78.55
11345;BME280;5727;42.600;23.028;2022-08-19T06:51:39;93564.16;;;23.06;77.76
11345;BME280;5727;42.600;23.028;2022-08-19T06:54:07;93566.00;;;23.09;74.50
11345;BME280;5727;42.600;23.028;2022-08-19T06:56:34;93561.31;;;23.17;75.02
11345;BME280;5727;42.600;23.028;2022-08-19T06:59:02;93569.50;;;23.29;75.27
11345;BME280;5727;42.600;23.028;2022-08-19T07:01:29;93567.06;;;23.38;76.97
11345;BME280;5727;42.600;23.028;2022-08-19T07:03:57;93569.13;;;23.50;76.94
11345;BME280;5727;42.600;23.028;2022-08-19T07:06:27;93566.56;;;23.67;77.73
11345;BME280;5727;42.600;23.028;2022-08-19T07:08:57;93570.25;;;23.73;79.25
11345;BME280;5727;42.600;23.028;2022-08-19T07:11:24;93567.63;;;23.69;80.93
11345;BME280;5727;42.600;23.028;2022-08-19T07:13:51;93565.47;;;23.84;80.73
11345;BME280;5727;42.600;23.028;2022-08-19T07:16:19;93567.66;;;23.89;80.57
11345;BME280;5727;42.600;23.028;2022-08-19T07:18:45;93563.22;;;24.02;79.36
11345;BME280;5727;42.600;23.028;2022-08-19T07:21:16;93556.38;;;24.17;79.57
11345;BME280;5727;42.600;23.028;2022-08-19T07:23:44;93561.78;;;24.33;79.05
11345;BME280;5727;42.600;23.028;2022-08-19T07:26:16;93560.31;;;24.48;78.41
11345;BME280;5727;42.600;23.028;2022-08-19T07:28:45;93560.34;;;24.64;79.37
11345;BME280;5727;42.600;23.028;2022-08-19T07:31:14;93555.84;;;24.77;78.44
11345;BME280;5727;42.600;23.028;2022-08-19T07:33:44;93556.25;;;24.92;76.93
11345;BME280;5727;42.600;23.028;2022-08-19T07:36:13;93557.84;;;25.05;76.04
11345;BME280;5727;42.600;23.028;2022-08-19T07:38:43;93557.09;;;25.21;75.05
11345;BME280;5727;42.600;23.028;2022-08-19T07:41:14;93557.34;;;25.26;74.14
11345;BME280;5727;42.600;23.028;2022-08-19T07:43:41;93557.84;;;25.37;74.31
11345;BME280;5727;42.600;23.028;2022-08-19T07:46:09;93555.50;;;25.40;74.51
11345;BME280;5727;42.600;23.028;2022-08-19T07:48:37;93556.97;;;25.57;72.71
11345;BME280;5727;42.600;23.028;2022-08-19T07:51:06;93559.81;;;25.66;71.22
11345;BME280;5727;42.600;23.028;2022-08-19T07:53:33;93558.34;;;25.77;69.60
11345;BME280;5727;42.600;23.028;2022-08-19T07:56:04;93562.44;;;25.82;66.35
11345;BME280;5727;42.600;23.028;2022-08-19T07:58:33;93561.19;;;25.99;65.43
11345;BME280;5727;42.600;23.028;2022-08-19T08:01:01;93557.06;;;26.10;64.00
11345;BME280;5727;42.600;23.028;2022-08-19T08:03:29;93559.75;;;26.23;62.56
11345;BME280;5727;42.600;23.028;2022-08-19T08:06:16;93555.16;;;26.36;61.42
11345;BME280;5727;42.600;23.028;2022-08-19T08:09:01;93545.94;;;26.50;57.50
11345;BME280;5727;42.600;23.028;2022-08-19T08:11:49;93548.75;;;26.59;57.21
11345;BME280;5727;42.600;23.028;2022-08-19T08:14:18;93545.41;;;26.67;57.15
11345;BME280;5727;42.600;23.028;2022-08-19T08:16:47;93551.84;;;26.82;56.81
11345;BME280;5727;42.600;23.028;2022-08-19T08:19:17;93542.16;;;26.97;56.61
11345;BME280;5727;42.600;23.028;2022-08-19T08:21:45;93540.22;;;27.10;54.91
11345;BME280;5727;42.600;23.028;2022-08-19T08:24:13;93532.22;;;27.20;51.84
11345;BME280;5727;42.600;23.028;2022-08-19T08:26:39;93538.88;;;27.28;51.95
11345;BME280;5727;42.600;23.028;2022-08-19T08:29:09;93538.41;;;27.42;51.23
11345;BME280;5727;42.600;23.028;2022-08-19T08:31:39;93527.19;;;27.56;50.01
11345;BME280;5727;42.600;23.028;2022-08-19T08:34:06;93526.50;;;27.64;49.85
11345;BME280;5727;42.600;23.028;2022-08-19T08:36:36;93526.44;;;27.77;49.72
11345;BME280;5727;42.600;23.028;2022-08-19T08:39:07;93528.88;;;27.84;50.49
11345;BME280;5727;42.600;23.028;2022-08-19T08:41:39;93526.16;;;27.96;49.91
11345;BME280;5727;42.600;23.028;2022-08-19T08:44:14;93526.06;;;28.09;51.00
11345;BME280;5727;42.600;23.028;2022-08-19T08:46:47;93523.19;;;28.25;49.47
11345;BME280;5727;42.600;23.028;2022-08-19T08:49:24;93524.59;;;28.39;48.49
11345;BME280;5727;42.600;23.028;2022-08-19T08:51:59;93524.94;;;28.50;48.01
11345;BME280;5727;42.600;23.028;2022-08-19T08:54:32;93522.59;;;28.61;47.06
11345;BME280;5727;42.600;23.028;2022-08-19T08:56:59;93524.13;;;28.71;47.09
11345;BME280;5727;42.600;23.028;2022-08-19T08:59:30;93523.13;;;28.77;46.14
11345;BME280;5727;42.600;23.028;2022-08-19T09:01:58;93519.22;;;28.87;46.56
11345;BME280;5727;42.600;23.028;2022-08-19T09:04:25;93526.75;;;28.83;45.55
11345;BME280;5727;42.600;23.028;2022-08-19T09:06:57;93512.66;;;28.88;45.41
11345;BME280;5727;42.600;23.028;2022-08-19T09:09:33;93509.25;;;29.06;45.40
11345;BME280;5727;42.600;23.028;2022-08-19T09:12:06;93511.34;;;29.11;44.38
11345;BME280;5727;42.600;23.028;2022-08-19T09:14:43;93504.66;;;29.25;44.91
11345;BME280;5727;42.600;23.028;2022-08-19T09:17:12;93503.63;;;29.40;43.13
11345;BME280;5727;42.600;23.028;2022-08-19T09:19:49;93507.38;;;29.43;43.14
11345;BME280;5727;42.600;23.028;2022-08-19T09:22:17;93509.16;;;29.55;43.62
11345;BME280;5727;42.600;23.028;2022-08-19T09:24:47;93500.94;;;29.58;42.79
11345;BME280;5727;42.600;23.028;2022-08-19T09:27:14;93498.38;;;29.64;43.49
11345;BME280;5727;42.600;23.028;2022-08-19T09:29:42;93500.03;;;29.80;41.86
11345;BME280;5727;42.600;23.028;2022-08-19T09:32:09;93499.56;;;29.72;41.01
11345;BME280;5727;42.600;23.028;2022-08-19T09:34:35;93489.22;;;29.70;40.76
11345;BME280;5727;42.600;23.028;2022-08-19T09:37:02;93490.56;;;29.84;41.02
11345;BME280;5727;42.600;23.028;2022-08-19T09:39:30;93494.44;;;29.92;41.65
11345;BME280;5727;42.600;23.028;2022-08-19T09:41:57;93481.34;;;30.09;41.04
11345;BME280;5727;42.600;23.028;2022-08-19T09:44:24;93486.88;;;30.14;38.20
11345;BME280;5727;42.600;23.028;2022-08-19T09:46:52;93485.22;;;30.17;42.52
11345;BME280;5727;42.600;23.028;2022-08-19T09:49:19;93470.97;;;30.25;39.39
11345;BME280;5727;42.600;23.028;2022-08-19T09:51:49;93478.47;;;30.21;40.53
11345;BME280;5727;42.600;23.028;2022-08-19T09:54:16;93485.41;;;30.13;39.88
11345;BME280;5727;42.600;23.028;2022-08-19T09:56:43;93472.78;;;30.19;39.58
11345;BME280;5727;42.600;23.028;2022-08-19T09:59:10;93468.97;;;30.26;39.76
11345;BME280;5727;42.600;23.028;2022-08-19T10:01:37;93460.44;;;30.36;38.39
11345;BME280;5727;42.600;23.028;2022-08-19T10:04:06;93464.94;;;30.30;36.79
11345;BME280;5727;42.600;23.028;2022-08-19T10:06:35;93460.84;;;30.44;34.55
11345;BME280;5727;42.600;23.028;2022-08-19T10:09:04;93459.91;;;30.47;34.41
11345;BME280;5727;42.600;23.028;2022-08-19T10:11:32;93453.31;;;30.48;36.72
11345;BME280;5727;42.600;23.028;2022-08-19T10:13:58;93451.59;;;30.59;34.54
11345;BME280;5727;42.600;23.028;2022-08-19T10:16:26;93453.25;;;30.66;34.11
11345;BME280;5727;42.600;23.028;2022-08-19T10:18:53;93447.47;;;30.73;33.89
11345;BME280;5727;42.600;23.028;2022-08-19T10:21:24;93441.44;;;30.78;33.99
11345;BME280;5727;42.600;23.028;2022-08-19T10:23:53;93445.78;;;30.85;31.97
11345;BME280;5727;42.600;23.028;2022-08-19T10:26:24;93444.53;;;30.95;32.90
11345;BME280;5727;42.600;23.028;2022-08-19T10:28:52;93438.09;;;31.07;32.76
11345;BME280;5727;42.600;23.028;2022-08-19T10:31:21;93433.75;;;31.09;32.91
11345;BME280;5727;42.600;23.028;2022-08-19T10:33:49;93433.84;;;31.15;32.07
11345;BME280;5727;42.600;23.028;2022-08-19T10:36:25;93439.38;;;31.20;31.69
11345;BME280;5727;42.600;23.028;2022-08-19T10:38:54;93433.03;;;31.23;31.44
11345;BME280;5727;42.600;23.028;2022-08-19T10:41:27;93432.22;;;31.32;30.69
11345;BME280;5727;42.600;23.028;2022-08-19T10:43:56;93435.66;;;31.32;30.44
11345;BME280;5727;42.600;23.028;2022-08-19T10:46:25;93432.84;;;31.27;30.62
11345;BME280;5727;42.600;23.028;2022-08-19T10:48:52;93427.38;;;31.36;31.23
11345;BME280;5727;42.600;23.028;2022-08-19T10:51:20;93433.66;;;31.42;33.82
11345;BME280;5727;42.600;23.028;2022-08-19T10:54:05;93433.03;;;31.62;33.10
11345;BME280;5727;42.600;23.028;2022-08-19T10:56:33;93435.38;;;31.69;32.74
11345;BME280;5727;42.600;23.028;2022-08-19T10:59:18;93425.66;;;31.77;32.54
11345;BME280;5727;42.600;23.028;2022-08-19T11:01:46;93432.78;;;31.89;32.02
11345;BME280;5727;42.600;23.028;2022-08-19T11:04:13;93426.59;;;31.88;31.76
11345;BME280;5727;42.600;23.028;2022-08-19T11:06:43;93424.66;;;31.89;31.80
11345;BME280;5727;42.600;23.028;2022-08-19T11:09:12;93420.81;;;31.95;30.77
11345;BME280;5727;42.600;23.028;2022-08-19T11:11:39;93414.84;;;31.91;29.22
11345;BME280;5727;42.600;23.028;2022-08-19T11:14:06;93418.38;;;31.97;29.67
11345;BME280;5727;42.600;23.028;2022-08-19T11:16:33;93416.72;;;32.00;30.34
11345;BME280;5727;42.600;23.028;2022-08-19T11:19:00;93417.47;;;32.00;29.73
11345;BME280;5727;42.600;23.028;2022-08-19T11:21:29;93415.13;;;31.93;29.93
11345;BME280;5727;42.600;23.028;2022-08-19T11:23:58;93408.88;;;32.02;29.86
11345;BME280;5727;42.600;23.028;2022-08-19T11:26:28;93412.22;;;32.11;31.34
11345;BME280;5727;42.600;23.028;2022-08-19T11:28:56;93405.94;;;32.20;30.40
11345;BME280;5727;42.600;23.028;2022-08-19T11:31:26;93411.81;;;32.18;29.21
11345;BME280;5727;42.600;23.028;2022-08-19T11:33:53;93408.91;;;32.22;29.24
11345;BME280;5727;42.600;23.028;2022-08-19T11:36:21;93402.78;;;32.21;28.67
11345;BME280;5727;42.600;23.028;2022-08-19T11:38:48;93396.13;;;32.22;28.39
11345;BME280;5727;42.600;23.028;2022-08-19T11:41:16;93402.66;;;32.30;28.20
11345;BME280;5727;42.600;23.028;2022-08-19T11:43:45;93393.66;;;32.39;28.29
11345;BME280;5727;42.600;23.028;2022-08-19T11:46:14;93394.38;;;32.39;28.57
11345;BME280;5727;42.600;23.028;2022-08-19T11:48:42;93387.53;;;32.59;28.37
11345;BME280;5727;42.600;23.028;2022-08-19T11:51:11;93380.91;;;33.20;27.67
11345;BME280;5727;42.600;23.028;2022-08-19T11:53:39;93385.25;;;34.46;26.92
11345;BME280;5727;42.600;23.028;2022-08-19T11:56:07;93378.66;;;35.98;24.67
11345;BME280;5727;42.600;23.028;2022-08-19T11:58:35;93379.97;;;37.55;22.89
11345;BME280;5727;42.600;23.028;2022-08-19T12:01:06;93369.91;;;39.12;21.23
11345;BME280;5727;42.600;23.028;2022-08-19T12:03:33;93368.69;;;40.32;19.74
11345;BME280;5727;42.600;23.028;2022-08-19T12:06:03;93359.78;;;41.36;19.16
11345;BME280;5727;42.600;23.028;2022-08-19T12:08:30;93362.50;;;41.49;18.17
11345;BME280;5727;42.600;23.028;2022-08-19T12:10:58;93360.50;;;41.83;17.82
11345;BME280;5727;42.600;23.028;2022-08-19T12:13:26;93361.22;;;42.95;16.81
11345;BME280;5727;42.600;23.028;2022-08-19T12:15:54;93348.81;;;44.10;16.76
11345;BME280;5727;42.600;23.028;2022-08-19T12:18:22;93339.16;;;43.89;16.70
11345;BME280;5727;42.600;23.028;2022-08-19T12:20:51;93343.28;;;44.71;16.39
11345;BME280;5727;42.600;23.028;2022-08-19T12:23:22;93345.66;;;44.36;16.10
11345;BME280;5727;42.600;23.028;2022-08-19T12:25:49;93351.72;;;44.95;15.56
11345;BME280;5727;42.600;23.028;2022-08-19T12:28:18;93349.31;;;44.99;15.42
11345;BME280;5727;42.600;23.028;2022-08-19T12:30:45;93344.25;;;45.36;15.64
11345;BME280;5727;42.600;23.028;2022-08-19T12:33:14;93336.81;;;45.53;14.42
11345;BME280;5727;42.600;23.028;2022-08-19T12:35:44;93335.59;;;45.71;14.67
11345;BME280;5727;42.600;23.028;2022-08-19T12:38:13;93331.47;;;45.87;14.78
11345;BME280;5727;42.600;23.028;2022-08-19T12:40:41;93331.94;;;45.69;14.94
11345;BME280;5727;42.600;23.028;2022-08-19T12:43:08;93337.09;;;45.10;14.68
11345;BME280;5727;42.600;23.028;2022-08-19T12:45:37;93329.47;;;45.33;15.02
11345;BME280;5727;42.600;23.028;2022-08-19T12:48:08;93329.94;;;46.19;14.54
11345;BME280;5727;42.600;23.028;2022-08-19T12:50:35;93331.97;;;45.93;14.61
11345;BME280;5727;42.600;23.028;2022-08-19T12:53:04;93324.13;;;46.32;14.21
11345;BME280;5727;42.600;23.028;2022-08-19T12:55:31;93321.03;;;46.28;14.00
11345;BME280;5727;42.600;23.028;2022-08-19T12:57:58;93317.50;;;46.02;14.35
11345;BME280;5727;42.600;23.028;2022-08-19T13:00:27;93313.53;;;45.88;14.40
11345;BME280;5727;42.600;23.028;2022-08-19T13:02:54;93306.28;;;45.68;14.93
11345;BME280;5727;42.600;23.028;2022-08-19T13:05:24;93301.59;;;45.39;15.43